sensor_id;sensor_type;location;lat;lon;timestamp;temperature;humidity
78992;DHT22;72820;44.838;37.674;2024-01-30T00:00:02;-2.52;81.32
78992;DHT22;72820;44.838;37.674;2024-01-30T00:01:06;-2.57;81.37
78992;DHT22;72820;44.838;37.674;2024-01-30T00:02:08;-2.58;81.58
78992;DHT22;72820;44.838;37.674;2024-01-30T00:03:09;-2.56;81.64
78992;DHT22;72820;44.838;37.674;2024-01-30T00:04:11;-2.56;81.41
78992;DHT22;72820;44.838;37.674;2024-01-30T00:05:12;-2.56;81.21
78992;DHT22;72820;44.838;37.674;2024-01-30T00:06:14;-2.54;80.77
78992;DHT22;72820;44.838;37.674;2024-01-30T00:07:16;-2.54;81.08
78992;DHT22;72820;44.838;37.674;2024-01-30T00:08:17;-2.50;81.15
78992;DHT22;72820;44.838;37.674;2024-01-30T00:09:19;-2.49;81.01
78992;DHT22;72820;44.838;37.674;2024-01-30T00:10:21;-2.49;81.19
78992;DHT22;72820;44.838;37.674;2024-01-30T00:11:23;-2.50;81.02
78992;DHT22;72820;44.838;37.674;2024-01-30T00:12:26;-2.52;81.28
78992;DHT22;72820;44.838;37.674;2024-01-30T00:13:28;-2.49;81.44
78992;DHT22;72820;44.838;37.674;2024-01-30T00:14:30;-2.49;81.40
78992;DHT22;72820;44.838;37.674;2024-01-30T00:15:31;-2.53;81.32
78992;DHT22;72820;44.838;37.674;2024-01-30T00:16:33;-2.50;81.35
78992;DHT22;72820;44.838;37.674;2024-01-30T00:17:36;-2.52;81.24
78992;DHT22;72820;44.838;37.674;2024-01-30T00:18:38;-2.56;81.17
78992;DHT22;72820;44.838;37.674;2024-01-30T00:19:40;-2.56;81.42
78992;DHT22;72820;44.838;37.674;2024-01-30T00:20:42;-2.57;81.38
78992;DHT22;72820;44.838;37.674;2024-01-30T00:21:44;-2.57;81.22
78992;DHT22;72820;44.838;37.674;2024-01-30T00:22:46;-2.53;81.12
78992;DHT22;72820;44.838;37.674;2024-01-30T00:23:47;-2.52;80.98
78992;DHT22;72820;44.838;37.674;2024-01-30T00:24:49;-2.53;80.46
78992;DHT22;72820;44.838;37.674;2024-01-30T00:25:51;-2.52;80.79
78992;DHT22;72820;44.838;37.674;2024-01-30T00:26:52;-2.47;80.89
78992;DHT22;72820;44.838;37.674;2024-01-30T00:27:54;-2.50;80.48
78992;DHT22;72820;44.838;37.674;2024-01-30T00:28:56;-2.49;80.60
78992;DHT22;72820;44.838;37.674;2024-01-30T00:29:57;-2.44;80.56
78992;DHT22;72820;44.838;37.674;2024-01-30T00:30:59;-2.43;80.50
78992;DHT22;72820;44.838;37.674;2024-01-30T00:32:00;-2.36;80.36
78992;DHT22;72820;44.838;37.674;2024-01-30T00:33:02;-2.32;80.12
78992;DHT22;72820;44.838;37.674;2024-01-30T00:34:04;-2.32;79.63
78992;DHT22;72820;44.838;37.674;2024-01-30T00:35:06;-2.37;79.17
78992;DHT22;72820;44.838;37.674;2024-01-30T00:36:09;-2.40;79.05
78992;DHT22;72820;44.838;37.674;2024-01-30T00:37:10;-2.49;79.38
78992;DHT22;72820;44.838;37.674;2024-01-30T00:38:12;-2.42;79.80
78992;DHT22;72820;44.838;37.674;2024-01-30T00:39:14;-2.46;79.22
78992;DHT22;72820;44.838;37.674;2024-01-30T00:40:17;-2.53;79.11
78992;DHT22;72820;44.838;37.674;2024-01-30T00:41:19;-2.56;79.05
78992;DHT22;72820;44.838;37.674;2024-01-30T00:42:20;-2.57;79.09
78992;DHT22;72820;44.838;37.674;2024-01-30T00:43:23;-2.54;79.29
78992;DHT22;72820;44.838;37.674;2024-01-30T00:44:26;-2.54;79.04
78992;DHT22;72820;44.838;37.674;2024-01-30T00:45:27;-2.52;79.13
78992;DHT22;72820;44.838;37.674;2024-01-30T00:46:29;-2.50;79.11
78992;DHT22;72820;44.838;37.674;2024-01-30T00:47:30;-2.50;78.89
78992;DHT22;72820;44.838;37.674;2024-01-30T00:48:34;-2.63;78.81
78992;DHT22;72820;44.838;37.674;2024-01-30T00:49:36;-2.65;79.57
78992;DHT22;72820;44.838;37.674;2024-01-30T00:50:38;-2.61;79.66
78992;DHT22;72820;44.838;37.674;2024-01-30T00:51:39;-2.64;79.66
78992;DHT22;72820;44.838;37.674;2024-01-30T00:52:41;-2.65;79.67
78992;DHT22;72820;44.838;37.674;2024-01-30T00:53:43;-2.70;79.72
78992;DHT22;72820;44.838;37.674;2024-01-30T00:54:45;-2.70;79.91
78992;DHT22;72820;44.838;37.674;2024-01-30T00:55:47;-2.67;80.10
78992;DHT22;72820;44.838;37.674;2024-01-30T00:56:48;-2.64;80.11
78992;DHT22;72820;44.838;37.674;2024-01-30T00:57:50;-2.58;80.05
78992;DHT22;72820;44.838;37.674;2024-01-30T00:58:51;-2.61;80.06
78992;DHT22;72820;44.838;37.674;2024-01-30T00:59:53;-2.61;80.18
78992;DHT22;72820;44.838;37.674;2024-01-30T01:00:55;-2.65;79.79
78992;DHT22;72820;44.838;37.674;2024-01-30T01:01:56;-2.70;79.45
78992;DHT22;72820;44.838;37.674;2024-01-30T01:02:59;-2.75;79.80
78992;DHT22;72820;44.838;37.674;2024-01-30T01:04:00;-2.75;80.15
78992;DHT22;72820;44.838;37.674;2024-01-30T01:05:02;-2.67;80.14
78992;DHT22;72820;44.838;37.674;2024-01-30T01:06:04;-2.70;80.08
78992;DHT22;72820;44.838;37.674;2024-01-30T01:07:06;-2.70;80.09
78992;DHT22;72820;44.838;37.674;2024-01-30T01:08:07;-2.75;80.34
78992;DHT22;72820;44.838;37.674;2024-01-30T01:09:11;-2.70;80.40
78992;DHT22;72820;44.838;37.674;2024-01-30T01:10:14;-2.72;80.40
78992;DHT22;72820;44.838;37.674;2024-01-30T01:11:15;-2.72;80.47
78992;DHT22;72820;44.838;37.674;2024-01-30T01:12:17;-2.74;80.29
78992;DHT22;72820;44.838;37.674;2024-01-30T01:13:19;-2.74;80.51
78992;DHT22;72820;44.838;37.674;2024-01-30T01:14:21;-2.68;80.40
78992;DHT22;72820;44.838;37.674;2024-01-30T01:15:25;-2.68;80.27
78992;DHT22;72820;44.838;37.674;2024-01-30T01:16:27;-2.71;80.37
78992;DHT22;72820;44.838;37.674;2024-01-30T01:17:28;-2.71;79.89
78992;DHT22;72820;44.838;37.674;2024-01-30T01:18:30;-2.71;79.93
78992;DHT22;72820;44.838;37.674;2024-01-30T01:19:32;-2.67;80.40
78992;DHT22;72820;44.838;37.674;2024-01-30T01:20:33;-2.70;80.01
78992;DHT22;72820;44.838;37.674;2024-01-30T01:21:35;-2.67;80.25
78992;DHT22;72820;44.838;37.674;2024-01-30T01:22:37;-2.68;79.61
78992;DHT22;72820;44.838;37.674;2024-01-30T01:23:40;-2.72;79.42
78992;DHT22;72820;44.838;37.674;2024-01-30T01:24:41;-2.74;79.83
78992;DHT22;72820;44.838;37.674;2024-01-30T01:25:43;-2.82;79.23
78992;DHT22;72820;44.838;37.674;2024-01-30T01:26:45;-2.82;80.07
78992;DHT22;72820;44.838;37.674;2024-01-30T01:27:46;-2.84;79.82
78992;DHT22;72820;44.838;37.674;2024-01-30T01:28:52;-2.87;79.82
78992;DHT22;72820;44.838;37.674;2024-01-30T01:29:54;-2.88;79.86
78992;DHT22;72820;44.838;37.674;2024-01-30T01:30:56;-2.85;80.08
78992;DHT22;72820;44.838;37.674;2024-01-30T01:32:00;-2.81;80.08
78992;DHT22;72820;44.838;37.674;2024-01-30T01:33:02;-2.82;79.88
78992;DHT22;72820;44.838;37.674;2024-01-30T01:34:03;-2.85;79.84
78992;DHT22;72820;44.838;37.674;2024-01-30T01:35:05;-2.87;79.78
78992;DHT22;72820;44.838;37.674;2024-01-30T01:36:07;-2.88;79.92
78992;DHT22;72820;44.838;37.674;2024-01-30T01:37:09;-2.88;79.99
78992;DHT22;72820;44.838;37.674;2024-01-30T01:38:11;-2.84;80.16
78992;DHT22;72820;44.838;37.674;2024-01-30T01:39:12;-2.87;80.02
78992;DHT22;72820;44.838;37.674;2024-01-30T01:40:14;-2.88;79.76
78992;DHT22;72820;44.838;37.674;2024-01-30T01:41:16;-2.91;80.09
78992;DHT22;72820;44.838;37.674;2024-01-30T01:42:17;-2.88;80.47
78992;DHT22;72820;44.838;37.674;2024-01-30T01:43:19;-2.87;80.31
78992;DHT22;72820;44.838;37.674;2024-01-30T01:44:20;-2.80;80.39
78992;DHT22;72820;44.838;37.674;2024-01-30T01:45:22;-2.81;80.07
78992;DHT22;72820;44.838;37.674;2024-01-30T01:46:26;-2.81;79.92
78992;DHT22;72820;44.838;37.674;2024-01-30T01:47:29;-2.85;80.07
78992;DHT22;72820;44.838;37.674;2024-01-30T01:48:30;-2.89;80.08
78992;DHT22;72820;44.838;37.674;2024-01-30T01:49:33;-2.98;80.47
78992;DHT22;72820;44.838;37.674;2024-01-30T01:50:35;-2.98;80.70
78992;DHT22;72820;44.838;37.674;2024-01-30T01:51:38;-2.93;81.12
78992;DHT22;72820;44.838;37.674;2024-01-30T01:52:42;-2.91;80.77
78992;DHT22;72820;44.838;37.674;2024-01-30T01:53:44;-2.95;80.82
78992;DHT22;72820;44.838;37.674;2024-01-30T01:54:46;-3.02;80.50
78992;DHT22;72820;44.838;37.674;2024-01-30T01:55:47;-3.03;80.88
78992;DHT22;72820;44.838;37.674;2024-01-30T01:56:50;-3.00;81.05
78992;DHT22;72820;44.838;37.674;2024-01-30T01:57:53;-2.98;80.94
78992;DHT22;72820;44.838;37.674;2024-01-30T01:58:55;-3.03;80.61
78992;DHT22;72820;44.838;37.674;2024-01-30T02:00:00;-3.00;80.96
78992;DHT22;72820;44.838;37.674;2024-01-30T02:01:04;-2.95;81.06
78992;DHT22;72820;44.838;37.674;2024-01-30T02:02:07;-2.96;80.81
78992;DHT22;72820;44.838;37.674;2024-01-30T02:03:13;-2.95;80.54
78992;DHT22;72820;44.838;37.674;2024-01-30T02:04:16;-2.95;80.69
78992;DHT22;72820;44.838;37.674;2024-01-30T02:05:18;-3.02;80.60
78992;DHT22;72820;44.838;37.674;2024-01-30T02:06:20;-3.05;80.74
78992;DHT22;72820;44.838;37.674;2024-01-30T02:07:21;-3.00;81.20
78992;DHT22;72820;44.838;37.674;2024-01-30T02:08:24;-2.99;80.90
78992;DHT22;72820;44.838;37.674;2024-01-30T02:09:26;-2.99;80.80
78992;DHT22;72820;44.838;37.674;2024-01-30T02:10:27;-2.99;80.54
78992;DHT22;72820;44.838;37.674;2024-01-30T02:11:29;-3.00;80.63
78992;DHT22;72820;44.838;37.674;2024-01-30T02:12:31;-2.98;80.78
78992;DHT22;72820;44.838;37.674;2024-01-30T02:13:32;-2.98;80.62
78992;DHT22;72820;44.838;37.674;2024-01-30T02:14:44;-2.98;80.25
78992;DHT22;72820;44.838;37.674;2024-01-30T02:15:50;-2.96;80.36
78992;DHT22;72820;44.838;37.674;2024-01-30T02:16:52;-2.98;80.36
78992;DHT22;72820;44.838;37.674;2024-01-30T02:17:54;-2.98;80.32
78992;DHT22;72820;44.838;37.674;2024-01-30T02:18:55;-2.99;80.07
78992;DHT22;72820;44.838;37.674;2024-01-30T02:19:59;-2.98;80.16
78992;DHT22;72820;44.838;37.674;2024-01-30T02:21:04;-2.95;80.44
78992;DHT22;72820;44.838;37.674;2024-01-30T02:22:06;-2.98;79.92
78992;DHT22;72820;44.838;37.674;2024-01-30T02:23:09;-2.99;80.12
78992;DHT22;72820;44.838;37.674;2024-01-30T02:24:11;-3.05;79.95
78992;DHT22;72820;44.838;37.674;2024-01-30T02:25:13;-3.08;80.17
78992;DHT22;72820;44.838;37.674;2024-01-30T02:26:15;-3.09;80.27
78992;DHT22;72820;44.838;37.674;2024-01-30T02:27:17;-3.10;80.11
78992;DHT22;72820;44.838;37.674;2024-01-30T02:28:19;-3.16;80.22
78992;DHT22;72820;44.838;37.674;2024-01-30T02:29:21;-3.12;80.47
78992;DHT22;72820;44.838;37.674;2024-01-30T02:30:22;-3.12;80.08
78992;DHT22;72820;44.838;37.674;2024-01-30T02:31:25;-3.15;80.32
78992;DHT22;72820;44.838;37.674;2024-01-30T02:32:27;-3.13;80.35
78992;DHT22;72820;44.838;37.674;2024-01-30T02:33:29;-3.13;80.09
78992;DHT22;72820;44.838;37.674;2024-01-30T02:34:30;-3.15;80.14
78992;DHT22;72820;44.838;37.674;2024-01-30T02:35:32;-3.13;80.18
78992;DHT22;72820;44.838;37.674;2024-01-30T02:36:35;-3.10;80.14
78992;DHT22;72820;44.838;37.674;2024-01-30T02:37:37;-3.10;79.86
78992;DHT22;72820;44.838;37.674;2024-01-30T02:38:38;-3.12;79.33
78992;DHT22;72820;44.838;37.674;2024-01-30T02:39:41;-3.17;79.51
78992;DHT22;72820;44.838;37.674;2024-01-30T02:40:44;-3.20;79.51
78992;DHT22;72820;44.838;37.674;2024-01-30T02:41:46;-3.26;79.54
78992;DHT22;72820;44.838;37.674;2024-01-30T02:42:48;-3.29;79.54
78992;DHT22;72820;44.838;37.674;2024-01-30T02:43:49;-3.34;79.58
78992;DHT22;72820;44.838;37.674;2024-01-30T02:44:51;-3.32;80.09
78992;DHT22;72820;44.838;37.674;2024-01-30T02:45:53;-3.30;80.09
78992;DHT22;72820;44.838;37.674;2024-01-30T02:46:54;-3.26;79.83
78992;DHT22;72820;44.838;37.674;2024-01-30T02:47:56;-3.30;79.45
78992;DHT22;72820;44.838;37.674;2024-01-30T02:48:58;-3.29;79.75
78992;DHT22;72820;44.838;37.674;2024-01-30T02:49:59;-3.26;79.61
78992;DHT22;72820;44.838;37.674;2024-01-30T02:51:01;-3.24;79.32
78992;DHT22;72820;44.838;37.674;2024-01-30T02:52:03;-3.24;79.45
78992;DHT22;72820;44.838;37.674;2024-01-30T02:53:05;-3.26;79.57
78992;DHT22;72820;44.838;37.674;2024-01-30T02:54:06;-3.33;79.10
78992;DHT22;72820;44.838;37.674;2024-01-30T02:55:08;-3.36;79.27
78992;DHT22;72820;44.838;37.674;2024-01-30T02:56:10;-3.33;79.74
78992;DHT22;72820;44.838;37.674;2024-01-30T02:57:11;-3.29;79.88
78992;DHT22;72820;44.838;37.674;2024-01-30T02:58:13;-3.21;79.98
78992;DHT22;72820;44.838;37.674;2024-01-30T02:59:15;-3.23;79.26
78992;DHT22;72820;44.838;37.674;2024-01-30T03:00:16;-3.27;79.38
78992;DHT22;72820;44.838;37.674;2024-01-30T03:01:18;-3.27;79.40
78992;DHT22;72820;44.838;37.674;2024-01-30T03:02:20;-3.30;79.63
78992;DHT22;72820;44.838;37.674;2024-01-30T03:03:21;-3.26;79.75
78992;DHT22;72820;44.838;37.674;2024-01-30T03:04:23;-3.24;79.68
78992;DHT22;72820;44.838;37.674;2024-01-30T03:05:25;-3.21;79.78
78992;DHT22;72820;44.838;37.674;2024-01-30T03:06:27;-3.20;79.68
78992;DHT22;72820;44.838;37.674;2024-01-30T03:07:28;-3.24;79.25
78992;DHT22;72820;44.838;37.674;2024-01-30T03:08:30;-3.23;79.40
78992;DHT22;72820;44.838;37.674;2024-01-30T03:09:32;-3.24;79.42
78992;DHT22;72820;44.838;37.674;2024-01-30T03:10:33;-3.26;79.50
78992;DHT22;72820;44.838;37.674;2024-01-30T03:11:38;-3.27;79.70
78992;DHT22;72820;44.838;37.674;2024-01-30T03:12:40;-3.26;78.99
78992;DHT22;72820;44.838;37.674;2024-01-30T03:13:42;-3.27;78.96
78992;DHT22;72820;44.838;37.674;2024-01-30T03:14:43;-3.34;78.97
78992;DHT22;72820;44.838;37.674;2024-01-30T03:15:45;-3.37;79.40
78992;DHT22;72820;44.838;37.674;2024-01-30T03:16:46;-3.39;79.42
78992;DHT22;72820;44.838;37.674;2024-01-30T03:17:48;-3.42;79.67
78992;DHT22;72820;44.838;37.674;2024-01-30T03:18:50;-3.42;79.90
78992;DHT22;72820;44.838;37.674;2024-01-30T03:19:51;-3.40;79.94
78992;DHT22;72820;44.838;37.674;2024-01-30T03:20:53;-3.40;79.60
78992;DHT22;72820;44.838;37.674;2024-01-30T03:21:55;-3.40;79.55
78992;DHT22;72820;44.838;37.674;2024-01-30T03:22:57;-3.39;79.92
78992;DHT22;72820;44.838;37.674;2024-01-30T03:23:58;-3.36;79.79
78992;DHT22;72820;44.838;37.674;2024-01-30T03:25:00;-3.34;79.83
78992;DHT22;72820;44.838;37.674;2024-01-30T03:26:02;-3.34;79.89
78992;DHT22;72820;44.838;37.674;2024-01-30T03:27:05;-3.36;79.78
78992;DHT22;72820;44.838;37.674;2024-01-30T03:28:07;-3.37;79.36
78992;DHT22;72820;44.838;37.674;2024-01-30T03:29:09;-3.39;79.82
78992;DHT22;72820;44.838;37.674;2024-01-30T03:30:11;-3.36;79.58
78992;DHT22;72820;44.838;37.674;2024-01-30T03:31:15;-3.39;79.48
78992;DHT22;72820;44.838;37.674;2024-01-30T03:32:17;-3.42;79.42
78992;DHT22;72820;44.838;37.674;2024-01-30T03:33:18;-3.42;79.28
78992;DHT22;72820;44.838;37.674;2024-01-30T03:34:20;-3.43;79.28
78992;DHT22;72820;44.838;37.674;2024-01-30T03:35:21;-3.48;79.37
78992;DHT22;72820;44.838;37.674;2024-01-30T03:36:23;-3.53;79.46
78992;DHT22;72820;44.838;37.674;2024-01-30T03:37:25;-3.53;79.96
78992;DHT22;72820;44.838;37.674;2024-01-30T03:38:26;-3.58;79.57
78992;DHT22;72820;44.838;37.674;2024-01-30T03:39:28;-3.61;80.02
78992;DHT22;72820;44.838;37.674;2024-01-30T03:40:30;-3.60;79.97
78992;DHT22;72820;44.838;37.674;2024-01-30T03:41:31;-3.55;80.31
78992;DHT22;72820;44.838;37.674;2024-01-30T03:42:33;-3.58;80.52
78992;DHT22;72820;44.838;37.674;2024-01-30T03:43:35;-3.57;80.51
78992;DHT22;72820;44.838;37.674;2024-01-30T03:44:37;-3.57;80.45
78992;DHT22;72820;44.838;37.674;2024-01-30T03:45:38;-3.55;80.47
78992;DHT22;72820;44.838;37.674;2024-01-30T03:46:40;-3.55;80.56
78992;DHT22;72820;44.838;37.674;2024-01-30T03:47:43;-3.60;80.39
78992;DHT22;72820;44.838;37.674;2024-01-30T03:48:45;-3.60;80.49
78992;DHT22;72820;44.838;37.674;2024-01-30T03:49:47;-3.62;80.38
78992;DHT22;72820;44.838;37.674;2024-01-30T03:50:49;-3.65;80.41
78992;DHT22;72820;44.838;37.674;2024-01-30T03:51:50;-3.64;80.51
78992;DHT22;72820;44.838;37.674;2024-01-30T03:52:52;-3.65;80.62
78992;DHT22;72820;44.838;37.674;2024-01-30T03:53:53;-3.64;80.31
78992;DHT22;72820;44.838;37.674;2024-01-30T03:54:55;-3.64;80.49
78992;DHT22;72820;44.838;37.674;2024-01-30T03:55:57;-3.62;80.37
78992;DHT22;72820;44.838;37.674;2024-01-30T03:56:59;-3.65;80.21
78992;DHT22;72820;44.838;37.674;2024-01-30T03:58:00;-3.64;80.22
78992;DHT22;72820;44.838;37.674;2024-01-30T03:59:02;-3.65;80.23
78992;DHT22;72820;44.838;37.674;2024-01-30T04:00:04;-3.65;80.46
78992;DHT22;72820;44.838;37.674;2024-01-30T04:01:16;-3.65;80.21
78992;DHT22;72820;44.838;37.674;2024-01-30T04:02:18;-3.64;80.13
78992;DHT22;72820;44.838;37.674;2024-01-30T04:03:19;-3.65;80.20
78992;DHT22;72820;44.838;37.674;2024-01-30T04:04:21;-3.68;79.87
78992;DHT22;72820;44.838;37.674;2024-01-30T04:05:23;-3.74;79.90
78992;DHT22;72820;44.838;37.674;2024-01-30T04:06:24;-3.74;79.99
78992;DHT22;72820;44.838;37.674;2024-01-30T04:07:26;-3.71;79.97
78992;DHT22;72820;44.838;37.674;2024-01-30T04:08:28;-3.74;79.83
78992;DHT22;72820;44.838;37.674;2024-01-30T04:09:30;-3.77;80.10
78992;DHT22;72820;44.838;37.674;2024-01-30T04:10:31;-3.70;80.39
78992;DHT22;72820;44.838;37.674;2024-01-30T04:11:33;-3.71;80.31
78992;DHT22;72820;44.838;37.674;2024-01-30T04:12:35;-3.72;80.12
78992;DHT22;72820;44.838;37.674;2024-01-30T04:13:37;-3.75;80.09
78992;DHT22;72820;44.838;37.674;2024-01-30T04:14:39;-3.75;80.19
78992;DHT22;72820;44.838;37.674;2024-01-30T04:15:41;-3.83;80.45
78992;DHT22;72820;44.838;37.674;2024-01-30T04:16:43;-3.78;80.65
78992;DHT22;72820;44.838;37.674;2024-01-30T04:17:45;-3.79;80.67
78992;DHT22;72820;44.838;37.674;2024-01-30T04:18:47;-3.75;80.45
78992;DHT22;72820;44.838;37.674;2024-01-30T04:19:48;-3.77;80.38
78992;DHT22;72820;44.838;37.674;2024-01-30T04:20:50;-3.79;80.31
78992;DHT22;72820;44.838;37.674;2024-01-30T04:21:52;-3.78;80.40
78992;DHT22;72820;44.838;37.674;2024-01-30T04:22:53;-3.78;80.29
78992;DHT22;72820;44.838;37.674;2024-01-30T04:23:55;-3.71;80.50
78992;DHT22;72820;44.838;37.674;2024-01-30T04:24:57;-3.70;80.33
78992;DHT22;72820;44.838;37.674;2024-01-30T04:25:58;-3.67;80.26
78992;DHT22;72820;44.838;37.674;2024-01-30T04:27:00;-3.64;80.11
78992;DHT22;72820;44.838;37.674;2024-01-30T04:28:02;-3.64;80.07
78992;DHT22;72820;44.838;37.674;2024-01-30T04:29:03;-3.64;80.22
78992;DHT22;72820;44.838;37.674;2024-01-30T04:30:05;-3.64;80.00
78992;DHT22;72820;44.838;37.674;2024-01-30T04:31:07;-3.62;80.21
78992;DHT22;72820;44.838;37.674;2024-01-30T04:32:09;-3.62;80.13
78992;DHT22;72820;44.838;37.674;2024-01-30T04:33:11;-3.65;80.04
78992;DHT22;72820;44.838;37.674;2024-01-30T04:34:13;-3.67;80.05
78992;DHT22;72820;44.838;37.674;2024-01-30T04:35:14;-3.64;79.84
78992;DHT22;72820;44.838;37.674;2024-01-30T04:36:16;-3.68;79.99
78992;DHT22;72820;44.838;37.674;2024-01-30T04:37:18;-3.70;79.85
78992;DHT22;72820;44.838;37.674;2024-01-30T04:38:19;-3.68;80.10
78992;DHT22;72820;44.838;37.674;2024-01-30T04:39:21;-3.64;80.10
78992;DHT22;72820;44.838;37.674;2024-01-30T04:40:23;-3.67;79.75
78992;DHT22;72820;44.838;37.674;2024-01-30T04:41:24;-3.64;80.28
78992;DHT22;72820;44.838;37.674;2024-01-30T04:42:27;-3.60;80.34
78992;DHT22;72820;44.838;37.674;2024-01-30T04:43:30;-3.61;79.80
78992;DHT22;72820;44.838;37.674;2024-01-30T04:44:32;-3.61;79.60
78992;DHT22;72820;44.838;37.674;2024-01-30T04:45:34;-3.62;79.72
78992;DHT22;72820;44.838;37.674;2024-01-30T04:46:35;-3.62;79.77
78992;DHT22;72820;44.838;37.674;2024-01-30T04:47:37;-3.68;79.55
78992;DHT22;72820;44.838;37.674;2024-01-30T04:48:40;-3.72;80.00
78992;DHT22;72820;44.838;37.674;2024-01-30T04:49:41;-3.72;80.02
78992;DHT22;72820;44.838;37.674;2024-01-30T04:50:43;-3.82;80.07
78992;DHT22;72820;44.838;37.674;2024-01-30T04:51:45;-3.82;80.23
78992;DHT22;72820;44.838;37.674;2024-01-30T04:52:46;-3.85;80.30
78992;DHT22;72820;44.838;37.674;2024-01-30T04:53:48;-3.92;80.32
78992;DHT22;72820;44.838;37.674;2024-01-30T04:54:50;-3.96;80.89
78992;DHT22;72820;44.838;37.674;2024-01-30T04:55:51;-3.92;81.19
78992;DHT22;72820;44.838;37.674;2024-01-30T04:56:53;-3.86;81.12
78992;DHT22;72820;44.838;37.674;2024-01-30T04:57:55;-3.86;81.04
78992;DHT22;72820;44.838;37.674;2024-01-30T04:58:56;-3.82;80.70
78992;DHT22;72820;44.838;37.674;2024-01-30T04:59:58;-3.78;80.66
78992;DHT22;72820;44.838;37.674;2024-01-30T05:00:59;-3.81;80.45
78992;DHT22;72820;44.838;37.674;2024-01-30T05:02:01;-3.82;80.70
78992;DHT22;72820;44.838;37.674;2024-01-30T05:03:04;-3.82;80.97
78992;DHT22;72820;44.838;37.674;2024-01-30T05:04:07;-3.82;80.51
78992;DHT22;72820;44.838;37.674;2024-01-30T05:05:10;-3.86;80.57
78992;DHT22;72820;44.838;37.674;2024-01-30T05:06:12;-3.95;80.58
78992;DHT22;72820;44.838;37.674;2024-01-30T05:07:14;-3.96;80.84
78992;DHT22;72820;44.838;37.674;2024-01-30T05:08:15;-3.93;81.02
78992;DHT22;72820;44.838;37.674;2024-01-30T05:09:17;-3.93;80.98
78992;DHT22;72820;44.838;37.674;2024-01-30T05:10:20;-3.95;80.71
78992;DHT22;72820;44.838;37.674;2024-01-30T05:11:21;-3.98;80.80
78992;DHT22;72820;44.838;37.674;2024-01-30T05:12:23;-4.02;81.22
78992;DHT22;72820;44.838;37.674;2024-01-30T05:13:25;-4.07;81.14
78992;DHT22;72820;44.838;37.674;2024-01-30T05:14:26;-4.05;81.53
78992;DHT22;72820;44.838;37.674;2024-01-30T05:15:28;-4.03;81.57
78992;DHT22;72820;44.838;37.674;2024-01-30T05:16:30;-3.98;81.73
78992;DHT22;72820;44.838;37.674;2024-01-30T05:17:31;-3.99;81.61
78992;DHT22;72820;44.838;37.674;2024-01-30T05:18:33;-3.93;81.50
78992;DHT22;72820;44.838;37.674;2024-01-30T05:19:35;-3.91;81.31
78992;DHT22;72820;44.838;37.674;2024-01-30T05:20:36;-3.89;80.83
78992;DHT22;72820;44.838;37.674;2024-01-30T05:21:38;-3.88;81.04
78992;DHT22;72820;44.838;37.674;2024-01-30T05:22:39;-3.89;81.12
78992;DHT22;72820;44.838;37.674;2024-01-30T05:23:46;-3.85;81.37
78992;DHT22;72820;44.838;37.674;2024-01-30T05:24:47;-3.85;81.26
78992;DHT22;72820;44.838;37.674;2024-01-30T05:25:49;-3.85;81.12
78992;DHT22;72820;44.838;37.674;2024-01-30T05:26:52;-3.79;81.16
78992;DHT22;72820;44.838;37.674;2024-01-30T05:27:55;-3.79;81.10
78992;DHT22;72820;44.838;37.674;2024-01-30T05:28:57;-3.78;80.87
78992;DHT22;72820;44.838;37.674;2024-01-30T05:29:59;-3.79;80.72
78992;DHT22;72820;44.838;37.674;2024-01-30T05:31:01;-3.77;80.54
78992;DHT22;72820;44.838;37.674;2024-01-30T05:32:03;-3.77;80.69
78992;DHT22;72820;44.838;37.674;2024-01-30T05:33:06;-3.78;80.61
78992;DHT22;72820;44.838;37.674;2024-01-30T05:34:08;-3.78;80.45
78992;DHT22;72820;44.838;37.674;2024-01-30T05:35:10;-3.77;80.21
78992;DHT22;72820;44.838;37.674;2024-01-30T05:36:12;-3.78;80.31
78992;DHT22;72820;44.838;37.674;2024-01-30T05:37:17;-3.79;80.53
78992;DHT22;72820;44.838;37.674;2024-01-30T05:38:19;-3.79;80.72
78992;DHT22;72820;44.838;37.674;2024-01-30T05:39:20;-3.83;80.83
78992;DHT22;72820;44.838;37.674;2024-01-30T05:40:22;-3.82;81.04
78992;DHT22;72820;44.838;37.674;2024-01-30T05:41:24;-3.81;80.96
78992;DHT22;72820;44.838;37.674;2024-01-30T05:42:26;-3.83;81.12
78992;DHT22;72820;44.838;37.674;2024-01-30T05:43:28;-3.82;81.11
78992;DHT22;72820;44.838;37.674;2024-01-30T05:44:30;-3.88;81.20
78992;DHT22;72820;44.838;37.674;2024-01-30T05:45:32;-3.88;81.45
78992;DHT22;72820;44.838;37.674;2024-01-30T05:46:35;-3.89;81.49
78992;DHT22;72820;44.838;37.674;2024-01-30T05:47:37;-3.85;81.57
78992;DHT22;72820;44.838;37.674;2024-01-30T05:48:38;-3.85;81.43
78992;DHT22;72820;44.838;37.674;2024-01-30T05:49:40;-3.82;81.62
78992;DHT22;72820;44.838;37.674;2024-01-30T05:50:42;-3.79;81.64
78992;DHT22;72820;44.838;37.674;2024-01-30T05:51:43;-3.74;81.41
78992;DHT22;72820;44.838;37.674;2024-01-30T05:52:46;-3.70;81.32
78992;DHT22;72820;44.838;37.674;2024-01-30T05:53:48;-3.71;81.07
78992;DHT22;72820;44.838;37.674;2024-01-30T05:54:50;-3.74;81.10
78992;DHT22;72820;44.838;37.674;2024-01-30T05:55:52;-3.68;81.32
78992;DHT22;72820;44.838;37.674;2024-01-30T05:56:53;-3.67;81.21
78992;DHT22;72820;44.838;37.674;2024-01-30T05:57:55;-3.70;80.97
78992;DHT22;72820;44.838;37.674;2024-01-30T05:58:57;-3.77;81.06
78992;DHT22;72820;44.838;37.674;2024-01-30T05:59:58;-3.70;81.87
78992;DHT22;72820;44.838;37.674;2024-01-30T06:01:00;-3.67;81.32
78992;DHT22;72820;44.838;37.674;2024-01-30T06:02:02;-3.64;81.19
78992;DHT22;72820;44.838;37.674;2024-01-30T06:03:04;-3.65;80.66
78992;DHT22;72820;44.838;37.674;2024-01-30T06:04:06;-3.67;80.67
78992;DHT22;72820;44.838;37.674;2024-01-30T06:05:09;-3.65;80.85
78992;DHT22;72820;44.838;37.674;2024-01-30T06:06:10;-3.61;80.60
78992;DHT22;72820;44.838;37.674;2024-01-30T06:07:12;-3.62;80.38
78992;DHT22;72820;44.838;37.674;2024-01-30T06:08:13;-3.58;80.52
78992;DHT22;72820;44.838;37.674;2024-01-30T06:09:15;-3.60;80.41
78992;DHT22;72820;44.838;37.674;2024-01-30T06:10:17;-3.61;80.41
78992;DHT22;72820;44.838;37.674;2024-01-30T06:11:19;-3.64;79.88
78992;DHT22;72820;44.838;37.674;2024-01-30T06:12:22;-3.65;80.03
78992;DHT22;72820;44.838;37.674;2024-01-30T06:13:24;-3.65;80.68
78992;DHT22;72820;44.838;37.674;2024-01-30T06:14:25;-3.60;80.35
78992;DHT22;72820;44.838;37.674;2024-01-30T06:15:27;-3.53;80.27
78992;DHT22;72820;44.838;37.674;2024-01-30T06:16:31;-3.57;79.53
78992;DHT22;72820;44.838;37.674;2024-01-30T06:17:32;-3.64;79.50
78992;DHT22;72820;44.838;37.674;2024-01-30T06:18:34;-3.67;79.94
78992;DHT22;72820;44.838;37.674;2024-01-30T06:19:36;-3.70;80.04
78992;DHT22;72820;44.838;37.674;2024-01-30T06:20:37;-3.68;80.05
78992;DHT22;72820;44.838;37.674;2024-01-30T06:21:39;-3.65;80.27
78992;DHT22;72820;44.838;37.674;2024-01-30T06:22:41;-3.67;80.07
78992;DHT22;72820;44.838;37.674;2024-01-30T06:23:42;-3.64;80.31
78992;DHT22;72820;44.838;37.674;2024-01-30T06:24:46;-3.60;80.27